sensor_id;sensor_type;location;lat;lon;timestamp;temperature;humidity
14093;DHT22;7123;49.468;10.992;2023-10-09T00:02:11;16.60;99.90
14093;DHT22;7123;49.468;10.992;2023-10-09T00:04:38;16.60;99.90
14093;DHT22;7123;49.468;10.992;2023-10-09T00:07:09;16.60;99.90
14093;DHT22;7123;49.468;10.992;2023-10-09T00:09:38;16.60;99.90
14093;DHT22;7123;49.468;10.992;2023-10-09T00:12:16;16.60;99.90
14093;DHT22;7123;49.468;10.992;2023-10-09T00:14:49;16.70;99.90
14093;DHT22;7123;49.468;10.992;2023-10-09T00:17:17;16.60;99.90
14093;DHT22;7123;49.468;10.992;2023-10-09T00:19:49;16.60;99.90
14093;DHT22;7123;49.468;10.992;2023-10-09T00:22:16;16.60;99.90
14093;DHT22;7123;49.468;10.992;2023-10-09T00:24:57;16.60;99.90
14093;DHT22;7123;49.468;10.992;2023-10-09T00:27:43;16.60;99.90
14093;DHT22;7123;49.468;10.992;2023-10-09T00:30:13;16.60;99.90
14093;DHT22;7123;49.468;10.992;2023-10-09T00:32:46;16.60;99.90
14093;DHT22;7123;49.468;10.992;2023-10-09T00:35:27;16.60;99.90
14093;DHT22;7123;49.468;10.992;2023-10-09T00:38:05;16.60;99.90
14093;DHT22;7123;49.468;10.992;2023-10-09T00:40:48;16.60;99.90
14093;DHT22;7123;49.468;10.992;2023-10-09T00:43:23;16.60;99.90
14093;DHT22;7123;49.468;10.992;2023-10-09T00:45:55;16.60;99.90
14093;DHT22;7123;49.468;10.992;2023-10-09T00:48:23;16.60;99.90
14093;DHT22;7123;49.468;10.992;2023-10-09T00:50:58;16.60;99.90
14093;DHT22;7123;49.468;10.992;2023-10-09T00:53:27;16.60;99.90
14093;DHT22;7123;49.468;10.992;2023-10-09T00:55:59;16.50;99.90
14093;DHT22;7123;49.468;10.992;2023-10-09T00:58:49;16.60;99.90
14093;DHT22;7123;49.468;10.992;2023-10-09T01:01:28;16.50;99.90
14093;DHT22;7123;49.468;10.992;2023-10-09T01:04:02;16.60;99.90
14093;DHT22;7123;49.468;10.992;2023-10-09T01:06:44;16.60;99.90
14093;DHT22;7123;49.468;10.992;2023-10-09T01:09:12;16.60;99.90
14093;DHT22;7123;49.468;10.992;2023-10-09T01:11:41;16.60;99.90
14093;DHT22;7123;49.468;10.992;2023-10-09T01:14:15;16.50;99.90
14093;DHT22;7123;49.468;10.992;2023-10-09T01:16:42;16.50;99.90
14093;DHT22;7123;49.468;10.992;2023-10-09T01:19:10;16.50;99.90
14093;DHT22;7123;49.468;10.992;2023-10-09T01:21:47;16.50;99.90
14093;DHT22;7123;49.468;10.992;2023-10-09T01:24:14;16.50;99.90
14093;DHT22;7123;49.468;10.992;2023-10-09T01:26:43;16.60;99.90
14093;DHT22;7123;49.468;10.992;2023-10-09T01:29:15;16.60;99.90
14093;DHT22;7123;49.468;10.992;2023-10-09T01:31:49;16.60;99.90
14093;DHT22;7123;49.468;10.992;2023-10-09T01:34:28;16.60;99.90
14093;DHT22;7123;49.468;10.992;2023-10-09T01:37:06;16.50;99.90
14093;DHT22;7123;49.468;10.992;2023-10-09T01:39:41;16.60;99.90
14093;DHT22;7123;49.468;10.992;2023-10-09T01:42:09;16.60;99.90
14093;DHT22;7123;49.468;10.992;2023-10-09T01:44:37;16.60;99.90
14093;DHT22;7123;49.468;10.992;2023-10-09T01:47:10;16.50;99.90
14093;DHT22;7123;49.468;10.992;2023-10-09T01:49:45;16.50;99.90
14093;DHT22;7123;49.468;10.992;2023-10-09T01:52:16;16.60;99.90
14093;DHT22;7123;49.468;10.992;2023-10-09T01:54:44;16.50;99.90
14093;DHT22;7123;49.468;10.992;2023-10-09T01:57:20;16.50;99.90
14093;DHT22;7123;49.468;10.992;2023-10-09T01:59:51;16.40;99.90
14093;DHT22;7123;49.468;10.992;2023-10-09T02:02:21;16.40;99.90
14093;DHT22;7123;49.468;10.992;2023-10-09T02:05:05;16.40;99.90
14093;DHT22;7123;49.468;10.992;2023-10-09T02:07:32;16.40;99.90
14093;DHT22;7123;49.468;10.992;2023-10-09T02:10:08;16.40;99.90
14093;DHT22;7123;49.468;10.992;2023-10-09T02:12:48;16.40;99.90
14093;DHT22;7123;49.468;10.992;2023-10-09T02:15:34;16.40;99.90
14093;DHT22;7123;49.468;10.992;2023-10-09T02:18:15;16.40;99.90
14093;DHT22;7123;49.468;10.992;2023-10-09T02:20:51;16.40;99.90
14093;DHT22;7123;49.468;10.992;2023-10-09T02:23:27;16.40;99.90
14093;DHT22;7123;49.468;10.992;2023-10-09T02:26:06;16.40;99.90
14093;DHT22;7123;49.468;10.992;2023-10-09T02:28:34;16.40;99.90
14093;DHT22;7123;49.468;10.992;2023-10-09T02:31:11;16.40;99.90
14093;DHT22;7123;49.468;10.992;2023-10-09T02:33:38;16.40;99.90
14093;DHT22;7123;49.468;10.992;2023-10-09T02:36:06;16.40;99.90
14093;DHT22;7123;49.468;10.992;2023-10-09T02:38:39;16.40;99.90
14093;DHT22;7123;49.468;10.992;2023-10-09T02:41:09;16.40;99.90
14093;DHT22;7123;49.468;10.992;2023-10-09T02:43:39;16.40;99.90
14093;DHT22;7123;49.468;10.992;2023-10-09T02:46:13;16.40;99.90
14093;DHT22;7123;49.468;10.992;2023-10-09T02:48:48;16.40;99.90
14093;DHT22;7123;49.468;10.992;2023-10-09T02:51:19;16.30;99.90
14093;DHT22;7123;49.468;10.992;2023-10-09T02:53:53;16.30;99.90
14093;DHT22;7123;49.468;10.992;2023-10-09T02:56:21;16.30;99.90
14093;DHT22;7123;49.468;10.992;2023-10-09T02:58:54;16.30;99.90
14093;DHT22;7123;49.468;10.992;2023-10-09T03:01:22;16.30;99.90
14093;DHT22;7123;49.468;10.992;2023-10-09T03:03:49;16.20;99.90
14093;DHT22;7123;49.468;10.992;2023-10-09T03:06:16;16.20;99.90
14093;DHT22;7123;49.468;10.992;2023-10-09T03:08:51;16.30;99.90
14093;DHT22;7123;49.468;10.992;2023-10-09T03:11:18;16.30;99.90
14093;DHT22;7123;49.468;10.992;2023-10-09T03:13:45;16.30;99.90
14093;DHT22;7123;49.468;10.992;2023-10-09T03:16:14;16.30;99.90
14093;DHT22;7123;49.468;10.992;2023-10-09T03:18:52;16.30;99.90
14093;DHT22;7123;49.468;10.992;2023-10-09T03:21:20;16.40;99.90
14093;DHT22;7123;49.468;10.992;2023-10-09T03:23:48;16.40;99.90
14093;DHT22;7123;49.468;10.992;2023-10-09T03:26:19;16.30;99.90
14093;DHT22;7123;49.468;10.992;2023-10-09T03:28:48;16.40;99.90
14093;DHT22;7123;49.468;10.992;2023-10-09T03:31:15;16.40;99.90
14093;DHT22;7123;49.468;10.992;2023-10-09T03:33:42;16.40;99.90
14093;DHT22;7123;49.468;10.992;2023-10-09T03:36:09;16.40;99.90
14093;DHT22;7123;49.468;10.992;2023-10-09T03:38:39;16.40;99.90
14093;DHT22;7123;49.468;10.992;2023-10-09T03:41:06;16.30;99.90
14093;DHT22;7123;49.468;10.992;2023-10-09T03:43:36;16.30;99.90
14093;DHT22;7123;49.468;10.992;2023-10-09T03:46:12;16.30;99.90
14093;DHT22;7123;49.468;10.992;2023-10-09T03:48:49;16.30;99.90
14093;DHT22;7123;49.468;10.992;2023-10-09T03:51:18;16.30;99.90
14093;DHT22;7123;49.468;10.992;2023-10-09T03:53:49;16.30;99.90
14093;DHT22;7123;49.468;10.992;2023-10-09T03:56:16;16.30;99.90
14093;DHT22;7123;49.468;10.992;2023-10-09T03:58:46;16.30;99.90
14093;DHT22;7123;49.468;10.992;2023-10-09T04:01:14;16.30;99.90
14093;DHT22;7123;49.468;10.992;2023-10-09T04:03:57;16.30;99.90
14093;DHT22;7123;49.468;10.992;2023-10-09T04:06:28;16.30;99.90
14093;DHT22;7123;49.468;10.992;2023-10-09T04:09:02;16.30;99.90
14093;DHT22;7123;49.468;10.992;2023-10-09T04:11:49;16.30;99.90
14093;DHT22;7123;49.468;10.992;2023-10-09T04:14:34;16.30;99.90
14093;DHT22;7123;49.468;10.992;2023-10-09T04:17:01;16.30;99.90
14093;DHT22;7123;49.468;10.992;2023-10-09T04:19:46;16.40;99.90
14093;DHT22;7123;49.468;10.992;2023-10-09T04:22:37;16.30;99.90
14093;DHT22;7123;49.468;10.992;2023-10-09T04:25:06;16.30;99.90
14093;DHT22;7123;49.468;10.992;2023-10-09T04:27:53;16.30;99.90
14093;DHT22;7123;49.468;10.992;2023-10-09T04:30:19;16.30;99.90
14093;DHT22;7123;49.468;10.992;2023-10-09T04:32:50;16.30;99.90
14093;DHT22;7123;49.468;10.992;2023-10-09T04:35:17;16.30;99.90
14093;DHT22;7123;49.468;10.992;2023-10-09T04:37:51;16.30;99.90
14093;DHT22;7123;49.468;10.992;2023-10-09T04:40:31;16.20;99.90
14093;DHT22;7123;49.468;10.992;2023-10-09T04:43:08;16.30;99.90
14093;DHT22;7123;49.468;10.992;2023-10-09T04:45:47;16.30;99.90
14093;DHT22;7123;49.468;10.992;2023-10-09T04:48:34;16.20;99.90
14093;DHT22;7123;49.468;10.992;2023-10-09T04:51:05;16.20;99.90
14093;DHT22;7123;49.468;10.992;2023-10-09T04:53:58;16.20;99.90
14093;DHT22;7123;49.468;10.992;2023-10-09T04:56:40;16.20;99.90
14093;DHT22;7123;49.468;10.992;2023-10-09T04:59:19;16.10;99.90
14093;DHT22;7123;49.468;10.992;2023-10-09T05:01:46;16.10;99.90
14093;DHT22;7123;49.468;10.992;2023-10-09T05:04:25;16.10;99.90
14093;DHT22;7123;49.468;10.992;2023-10-09T05:07:03;16.10;99.90
14093;DHT22;7123;49.468;10.992;2023-10-09T05:09:50;16.10;99.90
14093;DHT22;7123;49.468;10.992;2023-10-09T05:12:22;16.10;99.90
14093;DHT22;7123;49.468;10.992;2023-10-09T05:14:55;16.10;99.90
14093;DHT22;7123;49.468;10.992;2023-10-09T05:17:39;16.10;99.90
14093;DHT22;7123;49.468;10.992;2023-10-09T05:20:07;16.10;99.90
14093;DHT22;7123;49.468;10.992;2023-10-09T05:22:52;16.10;99.90
14093;DHT22;7123;49.468;10.992;2023-10-09T05:25:25;16.10;99.90
14093;DHT22;7123;49.468;10.992;2023-10-09T05:28:11;16.10;99.90
14093;DHT22;7123;49.468;10.992;2023-10-09T05:30:57;16.10;99.90
14093;DHT22;7123;49.468;10.992;2023-10-09T05:33:35;16.10;99.90
14093;DHT22;7123;49.468;10.992;2023-10-09T05:36:05;16.10;99.90
14093;DHT22;7123;49.468;10.992;2023-10-09T05:38:46;16.00;99.90
14093;DHT22;7123;49.468;10.992;2023-10-09T05:41:25;16.00;99.90
14093;DHT22;7123;49.468;10.992;2023-10-09T05:44:13;16.00;99.90
14093;DHT22;7123;49.468;10.992;2023-10-09T05:46:58;16.00;99.90
14093;DHT22;7123;49.468;10.992;2023-10-09T05:49:46;16.00;99.90
14093;DHT22;7123;49.468;10.992;2023-10-09T05:52:13;16.00;99.90
14093;DHT22;7123;49.468;10.992;2023-10-09T05:55:15;16.00;99.90
14093;DHT22;7123;49.468;10.992;2023-10-09T05:57:47;16.00;99.90
14093;DHT22;7123;49.468;10.992;2023-10-09T06:00:33;16.00;99.90
14093;DHT22;7123;49.468;10.992;2023-10-09T06:03:18;15.90;99.90
14093;DHT22;7123;49.468;10.992;2023-10-09T06:05:49;15.80;99.90
14093;DHT22;7123;49.468;10.992;2023-10-09T06:08:23;15.80;99.90
14093;DHT22;7123;49.468;10.992;2023-10-09T06:11:09;15.80;99.90
14093;DHT22;7123;49.468;10.992;2023-10-09T06:13:55;15.80;99.90
14093;DHT22;7123;49.468;10.992;2023-10-09T06:16:38;15.70;99.90
14093;DHT22;7123;49.468;10.992;2023-10-09T06:19:05;15.80;99.90
14093;DHT22;7123;49.468;10.992;2023-10-09T06:21:40;15.80;99.90
14093;DHT22;7123;49.468;10.992;2023-10-09T06:24:23;15.80;99.90
14093;DHT22;7123;49.468;10.992;2023-10-09T06:26:50;15.80;99.90
14093;DHT22;7123;49.468;10.992;2023-10-09T06:29:27;15.90;99.90
14093;DHT22;7123;49.468;10.992;2023-10-09T06:32:06;15.90;99.90
14093;DHT22;7123;49.468;10.992;2023-10-09T06:35:07;15.90;99.90
14093;DHT22;7123;49.468;10.992;2023-10-09T06:37:43;15.90;99.90
14093;DHT22;7123;49.468;10.992;2023-10-09T06:40:32;15.90;99.90
14093;DHT22;7123;49.468;10.992;2023-10-09T06:43:21;16.00;99.90
14093;DHT22;7123;49.468;10.992;2023-10-09T06:45:49;16.00;99.90
14093;DHT22;7123;49.468;10.992;2023-10-09T06:48:25;16.00;99.90
14093;DHT22;7123;49.468;10.992;2023-10-09T06:51:08;16.00;99.90
14093;DHT22;7123;49.468;10.992;2023-10-09T06:53:54;16.00;99.90
14093;DHT22;7123;49.468;10.992;2023-10-09T06:56:23;16.00;99.90
14093;DHT22;7123;49.468;10.992;2023-10-09T07:01:31;16.10;99.90
14093;DHT22;7123;49.468;10.992;2023-10-09T07:04:10;16.10;99.90
14093;DHT22;7123;49.468;10.992;2023-10-09T07:06:46;16.10;99.90
14093;DHT22;7123;49.468;10.992;2023-10-09T07:09:13;16.10;99.90
14093;DHT22;7123;49.468;10.992;2023-10-09T07:11:42;16.20;99.90
14093;DHT22;7123;49.468;10.992;2023-10-09T07:14:14;16.20;99.90
14093;DHT22;7123;49.468;10.992;2023-10-09T07:16:57;16.20;99.90
14093;DHT22;7123;49.468;10.992;2023-10-09T07:19:25;16.20;99.90
14093;DHT22;7123;49.468;10.992;2023-10-09T07:22:13;16.30;99.90
14093;DHT22;7123;49.468;10.992;2023-10-09T07:24:56;16.30;99.90
14093;DHT22;7123;49.468;10.992;2023-10-09T07:27:31;16.30;99.90
14093;DHT22;7123;49.468;10.992;2023-10-09T07:30:18;16.30;99.90
14093;DHT22;7123;49.468;10.992;2023-10-09T07:33:00;16.40;99.90
14093;DHT22;7123;49.468;10.992;2023-10-09T07:35:43;16.40;99.90
14093;DHT22;7123;49.468;10.992;2023-10-09T07:38:27;16.50;99.90
14093;DHT22;7123;49.468;10.992;2023-10-09T07:41:02;16.50;99.90
14093;DHT22;7123;49.468;10.992;2023-10-09T07:43:39;16.60;99.90
14093;DHT22;7123;49.468;10.992;2023-10-09T07:46:07;16.70;99.90
14093;DHT22;7123;49.468;10.992;2023-10-09T07:48:54;16.70;99.90
14093;DHT22;7123;49.468;10.992;2023-10-09T07:51:24;16.70;99.90
14093;DHT22;7123;49.468;10.992;2023-10-09T07:53:59;16.80;99.90
14093;DHT22;7123;49.468;10.992;2023-10-09T07:56:39;16.80;99.90
14093;DHT22;7123;49.468;10.992;2023-10-09T07:59:15;16.80;99.90
14093;DHT22;7123;49.468;10.992;2023-10-09T08:01:48;16.90;99.90
14093;DHT22;7123;49.468;10.992;2023-10-09T08:04:29;16.90;99.90
14093;DHT22;7123;49.468;10.992;2023-10-09T08:07:25;16.90;99.90
14093;DHT22;7123;49.468;10.992;2023-10-09T08:10:12;16.90;99.90
14093;DHT22;7123;49.468;10.992;2023-10-09T08:12:46;16.90;99.90
14093;DHT22;7123;49.468;10.992;2023-10-09T08:15:17;17.00;99.90
14093;DHT22;7123;49.468;10.992;2023-10-09T08:17:53;17.00;99.90
14093;DHT22;7123;49.468;10.992;2023-10-09T08:20:24;17.10;99.90
14093;DHT22;7123;49.468;10.992;2023-10-09T08:22:55;17.10;99.90
14093;DHT22;7123;49.468;10.992;2023-10-09T08:25:24;17.10;99.90
14093;DHT22;7123;49.468;10.992;2023-10-09T08:27:57;17.20;99.90
14093;DHT22;7123;49.468;10.992;2023-10-09T08:30:25;17.20;99.90
14093;DHT22;7123;49.468;10.992;2023-10-09T08:32:52;17.30;99.90
14093;DHT22;7123;49.468;10.992;2023-10-09T08:35:55;17.30;99.90
14093;DHT22;7123;49.468;10.992;2023-10-09T08:38:28;17.50;99.90
14093;DHT22;7123;49.468;10.992;2023-10-09T08:41:07;17.50;99.90
14093;DHT22;7123;49.468;10.992;2023-10-09T08:43:53;17.60;99.90
14093;DHT22;7123;49.468;10.992;2023-10-09T08:46:24;17.70;99.90
14093;DHT22;7123;49.468;10.992;2023-10-09T08:48:55;17.80;99.90
14093;DHT22;7123;49.468;10.992;2023-10-09T08:51:23;17.90;99.90
14093;DHT22;7123;49.468;10.992;2023-10-09T08:53:50;18.00;99.90
14093;DHT22;7123;49.468;10.992;2023-10-09T08:56:20;18.10;99.90
14093;DHT22;7123;49.468;10.992;2023-10-09T08:58:50;18.20;99.90
14093;DHT22;7123;49.468;10.992;2023-10-09T09:01:19;18.30;99.90
14093;DHT22;7123;49.468;10.992;2023-10-09T09:03:49;18.50;99.90
14093;DHT22;7123;49.468;10.992;2023-10-09T09:06:20;18.60;99.90
14093;DHT22;7123;49.468;10.992;2023-10-09T09:08:47;18.60;99.90
14093;DHT22;7123;49.468;10.992;2023-10-09T09:11:16;18.70;99.90
14093;DHT22;7123;49.468;10.992;2023-10-09T09:14:05;18.80;99.90
14093;DHT22;7123;49.468;10.992;2023-10-09T09:16:34;18.80;99.90
14093;DHT22;7123;49.468;10.992;2023-10-09T09:19:05;18.80;99.90
14093;DHT22;7123;49.468;10.992;2023-10-09T09:24:12;18.80;99.90
14093;DHT22;7123;49.468;10.992;2023-10-09T09:26:42;18.80;99.90
14093;DHT22;7123;49.468;10.992;2023-10-09T09:29:14;18.80;99.90
14093;DHT22;7123;49.468;10.992;2023-10-09T09:31:52;18.80;99.90
14093;DHT22;7123;49.468;10.992;2023-10-09T09:34:20;18.80;99.90
14093;DHT22;7123;49.468;10.992;2023-10-09T09:36:55;18.80;99.90
14093;DHT22;7123;49.468;10.992;2023-10-09T09:39:26;18.80;99.90
14093;DHT22;7123;49.468;10.992;2023-10-09T09:42:15;18.80;99.90
14093;DHT22;7123;49.468;10.992;2023-10-09T09:44:44;18.80;99.90
14093;DHT22;7123;49.468;10.992;2023-10-09T09:47:14;18.80;99.90
14093;DHT22;7123;49.468;10.992;2023-10-09T09:49:51;18.80;99.90
14093;DHT22;7123;49.468;10.992;2023-10-09T09:52:31;18.80;99.90
14093;DHT22;7123;49.468;10.992;2023-10-09T09:55:09;18.80;99.90
14093;DHT22;7123;49.468;10.992;2023-10-09T09:57:49;18.90;99.90
14093;DHT22;7123;49.468;10.992;2023-10-09T10:00:25;18.90;99.90
14093;DHT22;7123;49.468;10.992;2023-10-09T10:03:01;18.90;99.90
14093;DHT22;7123;49.468;10.992;2023-10-09T10:05:32;18.90;99.90
14093;DHT22;7123;49.468;10.992;2023-10-09T10:08:00;18.90;99.90
14093;DHT22;7123;49.468;10.992;2023-10-09T10:13:14;18.90;99.90
14093;DHT22;7123;49.468;10.992;2023-10-09T10:16:05;19.00;99.90
14093;DHT22;7123;49.468;10.992;2023-10-09T10:18:57;19.00;99.90
14093;DHT22;7123;49.468;10.992;2023-10-09T10:21:35;19.00;99.90
14093;DHT22;7123;49.468;10.992;2023-10-09T10:29:38;19.10;99.90
14093;DHT22;7123;49.468;10.992;2023-10-09T10:32:05;19.10;99.90
14093;DHT22;7123;49.468;10.992;2023-10-09T10:34:53;19.20;99.90
14093;DHT22;7123;49.468;10.992;2023-10-09T10:37:38;19.20;99.90
14093;DHT22;7123;49.468;10.992;2023-10-09T10:40:24;19.20;99.90
14093;DHT22;7123;49.468;10.992;2023-10-09T10:43:16;19.20;99.90
14093;DHT22;7123;49.468;10.992;2023-10-09T10:46:03;19.10;99.90
14093;DHT22;7123;49.468;10.992;2023-10-09T10:48:35;19.10;99.90
14093;DHT22;7123;49.468;10.992;2023-10-09T10:51:05;19.10;99.90
14093;DHT22;7123;49.468;10.992;2023-10-09T10:53:32;19.10;99.90
14093;DHT22;7123;49.468;10.992;2023-10-09T10:56:14;19.10;99.90
14093;DHT22;7123;49.468;10.992;2023-10-09T10:58:42;19.10;99.90
14093;DHT22;7123;49.468;10.992;2023-10-09T11:01:21;19.10;99.90
14093;DHT22;7123;49.468;10.992;2023-10-09T11:03:55;19.00;99.90
14093;DHT22;7123;49.468;10.992;2023-10-09T11:06:28;19.00;99.90
14093;DHT22;7123;49.468;10.992;2023-10-09T11:09:05;19.00;99.90
14093;DHT22;7123;49.468;10.992;2023-10-09T11:11:37;19.00;99.90
14093;DHT22;7123;49.468;10.992;2023-10-09T11:14:13;18.90;99.90
14093;DHT22;7123;49.468;10.992;2023-10-09T11:16:51;18.90;99.90
14093;DHT22;7123;49.468;10.992;2023-10-09T11:19:25;18.90;99.90
14093;DHT22;7123;49.468;10.992;2023-10-09T11:21:57;18.90;99.90
14093;DHT22;7123;49.468;10.992;2023-10-09T11:24:34;18.90;99.90
14093;DHT22;7123;49.468;10.992;2023-10-09T11:27:03;19.00;99.90
14093;DHT22;7123;49.468;10.992;2023-10-09T11:29:34;19.00;99.90
14093;DHT22;7123;49.468;10.992;2023-10-09T11:32:18;19.00;99.90
14093;DHT22;7123;49.468;10.992;2023-10-09T11:34:49;19.00;99.90
14093;DHT22;7123;49.468;10.992;2023-10-09T11:37:23;19.00;99.90
14093;DHT22;7123;49.468;10.992;2023-10-09T11:39:56;19.00;99.90
14093;DHT22;7123;49.468;10.992;2023-10-09T11:42:27;19.00;99.90
14093;DHT22;7123;49.468;10.992;2023-10-09T11:45:26;19.10;99.90
14093;DHT22;7123;49.468;10.992;2023-10-09T11:47:58;19.10;99.90
14093;DHT22;7123;49.468;10.992;2023-10-09T11:50:51;19.20;99.90
14093;DHT22;7123;49.468;10.992;2023-10-09T11:53:42;19.30;99.90
14093;DHT22;7123;49.468;10.992;2023-10-09T11:56:15;19.20;99.90
14093;DHT22;7123;49.468;10.992;2023-10-09T11:58:50;19.30;99.90
14093;DHT22;7123;49.468;10.992;2023-10-09T12:01:17;19.40;99.90
14093;DHT22;7123;49.468;10.992;2023-10-09T12:03:46;19.30;99.90
14093;DHT22;7123;49.468;10.992;2023-10-09T12:06:18;19.30;99.90
14093;DHT22;7123;49.468;10.992;2023-10-09T12:08:58;19.30;99.90
14093;DHT22;7123;49.468;10.992;2023-10-09T12:11:26;19.30;99.90
14093;DHT22;7123;49.468;10.992;2023-10-09T12:13:56;19.30;99.90
14093;DHT22;7123;49.468;10.992;2023-10-09T12:16:25;19.30;99.90
14093;DHT22;7123;49.468;10.992;2023-10-09T12:18:55;19.30;99.90
14093;DHT22;7123;49.468;10.992;2023-10-09T12:21:23;19.30;99.90
14093;DHT22;7123;49.468;10.992;2023-10-09T12:23:50;19.30;99.90
14093;DHT22;7123;49.468;10.992;2023-10-09T12:26:17;19.30;99.90
14093;DHT22;7123;49.468;10.992;2023-10-09T12:28:44;19.20;99.90
14093;DHT22;7123;49.468;10.992;2023-10-09T12:31:13;19.20;99.90
14093;DHT22;7123;49.468;10.992;2023-10-09T12:33:47;19.20;99.90
14093;DHT22;7123;49.468;10.992;2023-10-09T12:36:14;19.10;99.90
14093;DHT22;7123;49.468;10.992;2023-10-09T12:38:47;19.10;99.90
14093;DHT22;7123;49.468;10.992;2023-10-09T12:41:25;19.00;99.90
14093;DHT22;7123;49.468;10.992;2023-10-09T12:43:57;19.00;99.90
14093;DHT22;7123;49.468;10.992;2023-10-09T12:46:26;19.00;99.90
14093;DHT22;7123;49.468;10.992;2023-10-09T12:48:54;19.10;99.90
14093;DHT22;7123;49.468;10.992;2023-10-09T12:51:22;19.00;99.90
14093;DHT22;7123;49.468;10.992;2023-10-09T12:53:56;19.00;99.90
14093;DHT22;7123;49.468;10.992;2023-10-09T12:56:24;19.00;99.90
14093;DHT22;7123;49.468;10.992;2023-10-09T12:58:59;19.00;99.90
14093;DHT22;7123;49.468;10.992;2023-10-09T13:01:28;19.00;99.90
14093;DHT22;7123;49.468;10.992;2023-10-09T13:04:13;19.00;99.90
14093;DHT22;7123;49.468;10.992;2023-10-09T13:06:45;19.00;99.90
14093;DHT22;7123;49.468;10.992;2023-10-09T13:09:17;19.10;99.90
14093;DHT22;7123;49.468;10.992;2023-10-09T13:11:51;19.20;99.90
14093;DHT22;7123;49.468;10.992;2023-10-09T13:14:18;19.20;99.90
14093;DHT22;7123;49.468;10.992;2023-10-09T13:16:49;19.30;99.90
14093;DHT22;7123;49.468;10.992;2023-10-09T13:19:19;19.30;99.90
14093;DHT22;7123;49.468;10.992;2023-10-09T13:21:46;19.30;99.90
14093;DHT22;7123;49.468;10.992;2023-10-09T13:24:15;19.30;99.90
14093;DHT22;7123;49.468;10.992;2023-10-09T13:26:46;19.40;99.90
14093;DHT22;7123;49.468;10.992;2023-10-09T13:29:18;19.40;99.90
14093;DHT22;7123;49.468;10.992;2023-10-09T13:31:51;19.50;99.90
14093;DHT22;7123;49.468;10.992;2023-10-09T13:34:25;19.60;99.90
14093;DHT22;7123;49.468;10.992;2023-10-09T13:36:55;19.70;99.90
14093;DHT22;7123;49.468;10.992;2023-10-09T13:39:35;19.70;99.90
14093;DHT22;7123;49.468;10.992;2023-10-09T13:42:07;19.80;99.90
14093;DHT22;7123;49.468;10.992;2023-10-09T13:44:34;20.00;99.90
14093;DHT22;7123;49.468;10.992;2023-10-09T13:47:04;20.00;99.90
14093;DHT22;7123;49.468;10.992;2023-10-09T13:49:37;20.00;99.90
14093;DHT22;7123;49.468;10.992;2023-10-09T13:52:09;20.10;99.90
14093;DHT22;7123;49.468;10.992;2023-10-09T13:54:36;20.20;99.90
14093;DHT22;7123;49.468;10.992;2023-10-09T13:57:04;20.40;99.90
14093;DHT22;7123;49.468;10.992;2023-10-09T13:59:32;20.40;99.90
14093;DHT22;7123;49.468;10.992;2023-10-09T14:02:02;20.40;99.90
14093;DHT22;7123;49.468;10.992;2023-10-09T14:04:36;20.50;99.90
14093;DHT22;7123;49.468;10.992;2023-10-09T14:07:03;20.60;99.90
14093;DHT22;7123;49.468;10.992;2023-10-09T14:09:33;20.60;99.90
14093;DHT22;7123;49.468;10.992;2023-10-09T14:12:20;20.60;99.90
14093;DHT22;7123;49.468;10.992;2023-10-09T14:14:48;20.70;99.90
14093;DHT22;7123;49.468;10.992;2023-10-09T14:17:20;20.70;99.90
14093;DHT22;7123;49.468;10.992;2023-10-09T14:19:59;20.70;99.90
14093;DHT22;7123;49.468;10.992;2023-10-09T14:22:49;20.70;99.90
14093;DHT22;7123;49.468;10.992;2023-10-09T14:25:19;20.80;99.90
14093;DHT22;7123;49.468;10.992;2023-10-09T14:27:48;20.80;99.90
14093;DHT22;7123;49.468;10.992;2023-10-09T14:30:14;20.80;99.90
14093;DHT22;7123;49.468;10.992;2023-10-09T14:32:49;20.80;99.90
14093;DHT22;7123;49.468;10.992;2023-10-09T14:35:22;20.80;99.90
14093;DHT22;7123;49.468;10.992;2023-10-09T14:37:53;20.80;99.90
14093;DHT22;7123;49.468;10.992;2023-10-09T14:40:23;20.80;99.90
14093;DHT22;7123;49.468;10.992;2023-10-09T14:42:58;20.80;99.90
14093;DHT22;7123;49.468;10.992;2023-10-09T14:45:25;20.80;99.90
14093;DHT22;7123;49.468;10.992;2023-10-09T14:47:53;20.80;99.90
14093;DHT22;7123;49.468;10.992;2023-10-09T14:50:26;20.80;99.90
14093;DHT22;7123;49.468;10.992;2023-10-09T14:52:53;20.80;99.90
14093;DHT22;7123;49.468;10.992;2023-10-09T14:55:20;20.80;99.90
14093;DHT22;7123;49.468;10.992;2023-10-09T14:57:56;20.80;99.90
14093;DHT22;7123;49.468;10.992;2023-10-09T15:00:25;20.80;99.90
14093;DHT22;7123;49.468;10.992;2023-10-09T15:02:53;20.80;99.90
14093;DHT22;7123;49.468;10.992;2023-10-09T15:05:20;20.80;99.90
14093;DHT22;7123;49.468;10.992;2023-10-09T15:07:49;20.80;99.90
14093;DHT22;7123;49.468;10.992;2023-10-09T15:10:17;20.80;99.90
14093;DHT22;7123;49.468;10.992;2023-10-09T15:12:45;20.80;99.90
14093;DHT22;7123;49.468;10.992;2023-10-09T15:15:15;20.80;99.90
14093;DHT22;7123;49.468;10.992;2023-10-09T15:17:43;20.80;99.90
14093;DHT22;7123;49.468;10.992;2023-10-09T15:20:14;20.70;99.90
14093;DHT22;7123;49.468;10.992;2023-10-09T15:22:44;20.80;99.90
14093;DHT22;7123;49.468;10.992;2023-10-09T15:25:13;20.60;99.90
14093;DHT22;7123;49.468;10.992;2023-10-09T15:27:45;20.60;99.90
14093;DHT22;7123;49.468;10.992;2023-10-09T15:30:12;20.50;99.90
14093;DHT22;7123;49.468;10.992;2023-10-09T15:32:44;20.50;99.90
14093;DHT22;7123;49.468;10.992;2023-10-09T15:35:11;20.50;99.90
14093;DHT22;7123;49.468;10.992;2023-10-09T15:37:40;20.50;99.90
14093;DHT22;7123;49.468;10.992;2023-10-09T15:40:10;20.60;99.90
14093;DHT22;7123;49.468;10.992;2023-10-09T15:42:42;20.50;99.90
14093;DHT22;7123;49.468;10.992;2023-10-09T15:45:10;20.50;99.90
14093;DHT22;7123;49.468;10.992;2023-10-09T15:47:38;20.50;99.90
14093;DHT22;7123;49.468;10.992;2023-10-09T15:50:06;20.40;99.90
14093;DHT22;7123;49.468;10.992;2023-10-09T15:52:38;20.40;99.90
14093;DHT22;7123;49.468;10.992;2023-10-09T15:55:06;20.40;99.90
14093;DHT22;7123;49.468;10.992;2023-10-09T15:57:41;20.40;99.90
14093;DHT22;7123;49.468;10.992;2023-10-09T16:00:09;20.30;99.90
14093;DHT22;7123;49.468;10.992;2023-10-09T16:02:46;20.40;99.90
14093;DHT22;7123;49.468;10.992;2023-10-09T16:05:13;20.40;99.90
14093;DHT22;7123;49.468;10.992;2023-10-09T16:07:43;20.30;99.90
14093;DHT22;7123;49.468;10.992;2023-10-09T16:10:10;20.30;99.90
14093;DHT22;7123;49.468;10.992;2023-10-09T16:12:40;20.30;99.90
14093;DHT22;7123;49.468;10.992;2023-10-09T16:15:09;20.30;99.90
14093;DHT22;7123;49.468;10.992;2023-10-09T16:17:36;20.20;99.90
14093;DHT22;7123;49.468;10.992;2023-10-09T16:20:06;20.20;99.90
14093;DHT22;7123;49.468;10.992;2023-10-09T16:22:40;20.20;99.90
14093;DHT22;7123;49.468;10.992;2023-10-09T16:25:07;20.20;99.90
14093;DHT22;7123;49.468;10.992;2023-10-09T16:27:37;20.20;99.90